Time;durP1;ratioP1;P1;durP2;ratioP2;P2;SDS_P1;SDS_P2;PMS_P1;PMS_P2;Temp;Humidity;BMP_temperature;BMP_pressure;BME280_temperature;BME280_humidity;BME280_pressure;Samples;Min_cycle;Max_cycle;Signal;HPM_P1;HPM_P2
2023/11/30 00:00:11;;;;;;;8.02;7.20;;;;;;;;;;5057100;28;20373;-80
2023/11/30 00:02:37;;;;;;;7.85;7.10;;;;;;;;;;5062140;28;20943;-80
2023/11/30 00:05:06;;;;;;;7.03;6.43;;;;;;;;;;5058790;28;20384;-80
2023/11/30 00:07:32;;;;;;;7.93;7.10;;;;;;;;;;5057418;28;20433;-80
2023/11/30 00:09:58;;;;;;;7.60;6.90;;;;;;;;;;5055396;28;20841;-80
2023/11/30 00:12:24;;;;;;;7.27;6.63;;;;;;;;;;5056572;28;20420;-80
2023/11/30 00:14:50;;;;;;;8.85;6.90;;;;;;;;;;5056216;28;20381;-80
2023/11/30 00:17:16;;;;;;;8.07;7.22;;;;;;;;;;5056092;28;20457;-80
2023/11/30 00:19:42;;;;;;;7.68;6.90;;;;;;;;;;5056302;28;20871;-80
2023/11/30 00:22:09;;;;;;;7.15;6.45;;;;;;;;;;5056616;28;20377;-80
2023/11/30 00:24:35;;;;;;;7.78;6.97;;;;;;;;;;5056016;28;20373;-80
2023/11/30 00:27:00;;;;;;;7.93;7.13;;;;;;;;;;5055656;28;20374;-80
2023/11/30 00:29:26;;;;;;;7.50;6.80;;;;;;;;;;5055920;28;20397;-80
2023/11/30 00:31:52;;;;;;;7.78;6.95;;;;;;;;;;5055951;28;20409;-80
2023/11/30 00:34:18;;;;;;;6.85;6.25;;;;;;;;;;5055941;28;20385;-80
2023/11/30 00:36:44;;;;;;;8.25;6.82;;;;;;;;;;5055661;28;20396;-80
2023/11/30 00:39:10;;;;;;;7.78;6.90;;;;;;;;;;5056297;28;20439;-80
2023/11/30 00:41:36;;;;;;;7.77;6.97;;;;;;;;;;5055898;28;20389;-80
2023/11/30 00:44:02;;;;;;;7.40;6.70;;;;;;;;;;5055817;28;20389;-80
2023/11/30 00:46:28;;;;;;;7.45;6.65;;;;;;;;;;5067737;28;20418;-80
2023/11/30 00:48:54;;;;;;;7.70;7.00;;;;;;;;;;5055704;28;20393;-80
2023/11/30 00:51:20;;;;;;;7.87;7.00;;;;;;;;;;5055291;28;20858;-80
2023/11/30 00:53:46;;;;;;;7.80;7.03;;;;;;;;;;5064513;28;20453;-80
2023/11/30 00:56:12;;;;;;;6.93;6.32;;;;;;;;;;5057928;28;20486;-80
2023/11/30 00:58:38;;;;;;;7.25;6.55;;;;;;;;;;5055497;28;20380;-80
2023/11/30 01:01:04;;;;;;;7.25;6.55;;;;;;;;;;5055946;28;20369;-80
2023/11/30 01:03:30;;;;;;;7.13;6.43;;;;;;;;;;5063538;28;20433;-80
2023/11/30 01:05:56;;;;;;;7.10;6.40;;;;;;;;;;5072442;28;20391;-80
2023/11/30 01:08:22;;;;;;;7.17;6.47;;;;;;;;;;5071612;28;20552;-80
2023/11/30 01:10:48;;;;;;;7.63;6.82;;;;;;;;;;5062407;28;20444;-80
2023/11/30 01:13:14;;;;;;;7.63;6.82;;;;;;;;;;5069610;28;20378;-80
2023/11/30 01:15:40;;;;;;;7.70;6.90;;;;;;;;;;5056508;28;20739;-80
2023/11/30 01:18:06;;;;;;;7.22;6.60;;;;;;;;;;5055633;28;20839;-80
2023/11/30 01:20:32;;;;;;;7.37;6.67;;;;;;;;;;5058245;28;20396;-80
2023/11/30 01:22:58;;;;;;;7.05;6.43;;;;;;;;;;5071891;28;20396;-80
2023/11/30 01:25:24;;;;;;;6.87;6.17;;;;;;;;;;5059348;28;20393;-80
2023/11/30 01:27:52;;;;;;;6.90;6.13;;;;;;;;;;5055006;28;20381;-80
2023/11/30 01:30:18;;;;;;;7.20;6.50;;;;;;;;;;5055641;28;20440;-80
2023/11/30 01:32:44;;;;;;;6.88;6.28;;;;;;;;;;5054854;28;20922;-80
2023/11/30 01:35:10;;;;;;;7.10;6.50;;;;;;;;;;5055924;28;20377;-80
2023/11/30 01:37:38;;;;;;;6.90;6.30;;;;;;;;;;5058009;28;20429;-80
2023/11/30 01:40:04;;;;;;;6.53;5.93;;;;;;;;;;5065248;28;20400;-80
2023/11/30 01:42:30;;;;;;;6.90;6.20;;;;;;;;;;5055111;28;20386;-80
2023/11/30 01:44:56;;;;;;;6.25;5.70;;;;;;;;;;5054925;28;20389;-80
2023/11/30 01:47:23;;;;;;;7.43;5.97;;;;;;;;;;5054801;28;20907;-80
2023/11/30 01:49:49;;;;;;;6.00;5.40;;;;;;;;;;5054763;28;20385;-80
2023/11/30 01:52:15;;;;;;;6.45;5.60;;;;;;;;;;5054535;28;20473;-80
2023/11/30 01:54:41;;;;;;;6.30;5.80;;;;;;;;;;5058540;28;20389;-80
2023/11/30 01:57:07;;;;;;;6.50;5.90;;;;;;;;;;5056189;28;20480;-80
2023/11/30 01:59:34;;;;;;;6.28;5.68;;;;;;;;;;5066957;28;20411;-80
2023/11/30 02:02:00;;;;;;;6.18;5.57;;;;;;;;;;5055211;28;20442;-80
2023/11/30 02:04:26;;;;;;;6.43;5.82;;;;;;;;;;5054572;28;20378;-80
2023/11/30 02:06:53;;;;;;;5.87;5.37;;;;;;;;;;5055174;28;20763;-80
2023/11/30 02:09:19;;;;;;;5.72;5.22;;;;;;;;;;5065207;28;20948;-80
2023/11/30 02:11:45;;;;;;;5.95;5.45;;;;;;;;;;5059683;28;20510;-81
2023/11/30 02:14:13;;;;;;;5.88;5.30;;;;;;;;;;5075115;28;20727;-81
2023/11/30 02:16:39;;;;;;;6.40;5.82;;;;;;;;;;5059489;28;20422;-80
2023/11/30 02:19:05;;;;;;;6.57;6.03;;;;;;;;;;5054907;28;20461;-81
2023/11/30 02:21:31;;;;;;;6.35;5.75;;;;;;;;;;5055036;28;20381;-80
2023/11/30 02:23:57;;;;;;;6.65;6.05;;;;;;;;;;5055272;28;20438;-80
2023/11/30 02:26:23;;;;;;;6.97;6.27;;;;;;;;;;5055005;28;20377;-80
2023/11/30 02:28:49;;;;;;;7.22;6.47;;;;;;;;;;5055261;28;20384;-80
2023/11/30 02:31:15;;;;;;;7.18;6.40;;;;;;;;;;5055181;28;20502;-80
2023/11/30 02:33:41;;;;;;;7.55;6.60;;;;;;;;;;5060283;28;20412;-80
2023/11/30 02:36:07;;;;;;;7.13;6.35;;;;;;;;;;5078462;28;20403;-80
2023/11/30 02:38:33;;;;;;;7.15;6.45;;;;;;;;;;5070848;28;20372;-80
2023/11/30 02:40:59;;;;;;;8.85;7.68;;;;;;;;;;5058799;28;20381;-80
2023/11/30 02:43:28;;;;;;;7.97;7.25;;;;;;;;;;5058566;28;20386;-80
2023/11/30 02:45:54;;;;;;;8.55;7.20;;;;;;;;;;5058110;28;20787;-81
2023/11/30 02:48:20;;;;;;;9.10;7.25;;;;;;;;;;5058404;28;20373;-80
2023/11/30 02:50:46;;;;;;;8.25;6.97;;;;;;;;;;5068104;28;20777;-80
2023/11/30 02:53:12;;;;;;;8.13;7.00;;;;;;;;;;5058557;28;20438;-80
2023/11/30 02:55:37;;;;;;;8.95;7.13;;;;;;;;;;5063822;28;20380;-80
2023/11/30 02:58:03;;;;;;;9.20;7.50;;;;;;;;;;5059882;28;20894;-80
2023/11/30 03:00:29;;;;;;;7.18;6.22;;;;;;;;;;5065876;28;20389;-80
2023/11/30 03:02:55;;;;;;;7.55;6.80;;;;;;;;;;5058717;28;20397;-80
2023/11/30 03:05:21;;;;;;;7.80;6.85;;;;;;;;;;5058031;28;20519;-80
2023/11/30 03:07:47;;;;;;;6.93;6.20;;;;;;;;;;5057828;28;20882;-80
2023/11/30 03:10:13;;;;;;;6.90;6.30;;;;;;;;;;5058110;28;20533;-80
2023/11/30 03:12:39;;;;;;;7.07;6.22;;;;;;;;;;5068848;28;20379;-80
2023/11/30 03:15:05;;;;;;;6.80;6.10;;;;;;;;;;5061020;28;20373;-80
2023/11/30 03:17:31;;;;;;;7.30;6.43;;;;;;;;;;5057622;28;20409;-78
2023/11/30 03:19:57;;;;;;;6.85;6.20;;;;;;;;;;5057372;28;20393;-80
2023/11/30 03:22:23;;;;;;;7.50;6.80;;;;;;;;;;5057615;28;20458;-80
2023/11/30 03:24:49;;;;;;;7.50;6.80;;;;;;;;;;5057652;28;20450;-80
2023/11/30 03:27:15;;;;;;;7.60;6.90;;;;;;;;;;5057798;28;20389;-80
2023/11/30 03:29:41;;;;;;;6.93;6.32;;;;;;;;;;5057582;28;20819;-80
2023/11/30 03:32:07;;;;;;;6.90;6.20;;;;;;;;;;5058010;28;20466;-80
2023/11/30 03:34:33;;;;;;;7.55;6.57;;;;;;;;;;5057798;28;20389;-80
2023/11/30 03:36:59;;;;;;;6.78;6.15;;;;;;;;;;5057712;28;20393;-80
2023/11/30 03:39:25;;;;;;;7.60;6.80;;;;;;;;;;5058234;28;20431;-80
2023/11/30 03:41:51;;;;;;;7.05;6.45;;;;;;;;;;5057102;28;20378;-80
2023/11/30 03:44:17;;;;;;;7.03;6.28;;;;;;;;;;5056424;28;20393;-80
2023/11/30 03:46:43;;;;;;;7.05;6.45;;;;;;;;;;5056868;28;20431;-80
2023/11/30 03:49:09;;;;;;;7.75;6.95;;;;;;;;;;5056904;28;20389;-80
2023/11/30 03:51:35;;;;;;;6.57;5.85;;;;;;;;;;5057375;28;20409;-80
2023/11/30 03:54:01;;;;;;;7.20;6.50;;;;;;;;;;5057455;28;20751;-80
2023/11/30 03:56:30;;;;;;;7.10;6.50;;;;;;;;;;5057792;28;20460;-80
2023/11/30 03:58:56;;;;;;;6.97;6.32;;;;;;;;;;5062001;28;20456;-80
2023/11/30 04:01:23;;;;;;;7.40;6.70;;;;;;;;;;5057487;28;20390;-80
2023/11/30 04:03:50;;;;;;;7.63;6.93;;;;;;;;;;5069683;28;20737;-80
2023/11/30 04:06:22;;;;;;;7.25;6.63;;;;;;;;;;5058373;28;20394;-80
2023/11/30 04:08:49;;;;;;;8.55;7.10;;;;;;;;;;5056774;28;20377;-80
2023/11/30 04:11:18;;;;;;;8.23;7.43;;;;;;;;;;5056266;28;20431;-80
2023/11/30 04:13:45;;;;;;;8.43;7.63;;;;;;;;;;5071199;28;20422;-80
2023/11/30 04:16:11;;;;;;;8.90;8.10;;;;;;;;;;5056980;28;20396;-80
2023/11/30 04:18:37;;;;;;;9.48;7.95;;;;;;;;;;5056468;28;20391;-80
2023/11/30 04:21:05;;;;;;;9.55;8.60;;;;;;;;;;5056946;28;20472;-80
2023/11/30 04:23:31;;;;;;;8.85;7.90;;;;;;;;;;5056686;28;20389;-80
2023/11/30 04:25:57;;;;;;;9.02;8.20;;;;;;;;;;5056515;28;20400;-80
2023/11/30 04:28:23;;;;;;;9.18;8.27;;;;;;;;;;5056646;28;20755;-80
2023/11/30 04:30:49;;;;;;;9.15;8.18;;;;;;;;;;5056711;28;20514;-80
2023/11/30 04:33:15;;;;;;;9.48;8.48;;;;;;;;;;5056356;28;20373;-80
2023/11/30 04:35:41;;;;;;;9.48;8.43;;;;;;;;;;5056346;28;20432;-80
2023/11/30 04:38:07;;;;;;;9.07;8.20;;;;;;;;;;5056424;28;20493;-81
2023/11/30 04:40:33;;;;;;;11.18;8.98;;;;;;;;;;5056539;28;20877;-80
2023/11/30 04:42:59;;;;;;;8.75;7.85;;;;;;;;;;5056588;28;20406;-80
2023/11/30 04:45:25;;;;;;;8.93;8.02;;;;;;;;;;5056413;28;20377;-80
2023/11/30 04:47:51;;;;;;;9.43;8.63;;;;;;;;;;5071068;28;20396;-80
2023/11/30 04:50:17;;;;;;;9.57;8.57;;;;;;;;;;5055682;28;20416;-78
2023/11/30 04:52:43;;;;;;;9.63;8.45;;;;;;;;;;5054337;28;20370;-78
2023/11/30 04:55:09;;;;;;;9.80;7.95;;;;;;;;;;5064715;28;20757;-78
2023/11/30 04:57:35;;;;;;;8.70;7.80;;;;;;;;;;5058099;28;20392;-80
2023/11/30 05:00:03;;;;;;;9.43;8.55;;;;;;;;;;5066048;28;20399;-80
2023/11/30 05:02:30;;;;;;;10.00;9.00;;;;;;;;;;5060587;28;20388;-80
2023/11/30 05:04:58;;;;;;;9.55;8.75;;;;;;;;;;5056220;28;20945;-80
2023/11/30 05:07:24;;;;;;;8.85;8.05;;;;;;;;;;5056177;28;20426;-80
2023/11/30 05:09:50;;;;;;;8.98;8.20;;;;;;;;;;5055661;28;20744;-80
2023/11/30 05:12:16;;;;;;;8.57;7.78;;;;;;;;;;5063420;28;20391;-80
2023/11/30 05:14:43;;;;;;;8.67;7.87;;;;;;;;;;5062596;28;20373;-80
2023/11/30 05:17:09;;;;;;;8.82;8.02;;;;;;;;;;5055965;28;20774;-80
2023/11/30 05:19:35;;;;;;;9.00;8.10;;;;;;;;;;5055863;28;20374;-80
2023/11/30 05:22:01;;;;;;;9.37;8.57;;;;;;;;;;5054105;28;20408;-80
2023/11/30 05:24:27;;;;;;;9.63;8.82;;;;;;;;;;5055415;28;20735;-81
2023/11/30 05:26:53;;;;;;;10.03;9.13;;;;;;;;;;5055820;28;20385;-80
2023/11/30 05:29:19;;;;;;;9.75;8.85;;;;;;;;;;5055873;28;20400;-80
2023/11/30 05:31:45;;;;;;;10.95;9.95;;;;;;;;;;5055360;28;20740;-80
2023/11/30 05:34:11;;;;;;;15.30;11.43;;;;;;;;;;5055555;28;20423;-81
2023/11/30 05:36:37;;;;;;;9.82;8.93;;;;;;;;;;5055356;28;20427;-80
2023/11/30 05:39:03;;;;;;;9.75;8.85;;;;;;;;;;5055238;28;20373;-80
2023/11/30 05:41:29;;;;;;;9.55;8.55;;;;;;;;;;5055300;28;20911;-80
2023/11/30 05:43:55;;;;;;;9.50;8.60;;;;;;;;;;5055739;28;20747;-80
2023/11/30 05:46:21;;;;;;;9.55;8.57;;;;;;;;;;5055324;28;20409;-80
2023/11/30 05:48:47;;;;;;;9.70;8.77;;;;;;;;;;5055527;28;20428;-80
2023/11/30 05:51:13;;;;;;;9.82;8.55;;;;;;;;;;5055452;28;20423;-80
2023/11/30 05:53:39;;;;;;;9.80;8.80;;;;;;;;;;5058240;28;20859;-80
2023/11/30 05:56:05;;;;;;;9.07;8.25;;;;;;;;;;5070568;28;20381;-80
2023/11/30 05:58:32;;;;;;;9.07;8.30;;;;;;;;;;5055037;28;20426;-80
2023/11/30 06:00:58;;;;;;;10.25;9.18;;;;;;;;;;5059030;28;20380;-80
2023/11/30 06:03:24;;;;;;;10.23;8.60;;;;;;;;;;5054994;28;20385;-80
2023/11/30 06:05:51;;;;;;;9.90;8.90;;;;;;;;;;5054070;28;20379;-80
2023/11/30 06:08:17;;;;;;;9.30;8.40;;;;;;;;;;5057252;28;20468;-80
2023/11/30 06:10:43;;;;;;;9.45;8.55;;;;;;;;;;5058054;28;20906;-80
2023/11/30 06:13:10;;;;;;;11.05;8.68;;;;;;;;;;5072293;28;20517;-80
2023/11/30 06:15:36;;;;;;;10.38;8.40;;;;;;;;;;5058638;28;20374;-80
2023/11/30 06:18:02;;;;;;;10.23;9.23;;;;;;;;;;5058324;28;20716;-80
2023/11/30 06:20:28;;;;;;;10.18;9.07;;;;;;;;;;5058346;28;20373;-80
2023/11/30 06:22:54;;;;;;;9.75;8.85;;;;;;;;;;5057708;28;20389;-78
2023/11/30 06:25:20;;;;;;;10.30;9.30;;;;;;;;;;5057401;28;20377;-80
2023/11/30 06:27:49;;;;;;;10.63;9.57;;;;;;;;;;5057758;28;20456;-80
2023/11/30 06:30:15;;;;;;;10.55;9.50;;;;;;;;;;5057591;28;20452;-80
2023/11/30 06:32:41;;;;;;;10.38;9.25;;;;;;;;;;5057776;28;20373;-80
2023/11/30 06:35:08;;;;;;;10.27;9.23;;;;;;;;;;5058176;28;20393;-80
2023/11/30 06:37:34;;;;;;;9.27;8.50;;;;;;;;;;5057908;28;20411;-81
2023/11/30 06:40:00;;;;;;;10.02;9.02;;;;;;;;;;5057875;28;20385;-81
2023/11/30 06:42:26;;;;;;;10.65;9.65;;;;;;;;;;5060348;28;20374;-81
2023/11/30 06:44:52;;;;;;;10.07;9.00;;;;;;;;;;5057559;28;20888;-80
2023/11/30 06:47:18;;;;;;;10.15;9.25;;;;;;;;;;5057868;28;20420;-80
2023/11/30 06:49:45;;;;;;;11.57;10.38;;;;;;;;;;5059921;28;20448;-80
2023/11/30 06:52:11;;;;;;;14.13;12.57;;;;;;;;;;5063333;28;20381;-81
2023/11/30 06:54:37;;;;;;;15.32;11.93;;;;;;;;;;5057524;28;20382;-80
2023/11/30 06:57:03;;;;;;;15.63;12.60;;;;;;;;;;5057005;28;20404;-80
2023/11/30 06:59:29;;;;;;;12.23;11.02;;;;;;;;;;5057865;28;20385;-80
2023/11/30 07:01:55;;;;;;;13.13;11.83;;;;;;;;;;5064006;28;20372;-80
2023/11/30 07:04:21;;;;;;;12.75;11.50;;;;;;;;;;5065878;28;20896;-81
2023/11/30 07:06:47;;;;;;;13.50;12.20;;;;;;;;;;5063900;28;20480;-80
2023/11/30 07:09:13;;;;;;;13.25;11.95;;;;;;;;;;5076514;28;20384;-81
2023/11/30 07:11:39;;;;;;;12.32;11.13;;;;;;;;;;5064939;28;20474;-81
2023/11/30 07:14:06;;;;;;;12.77;11.48;;;;;;;;;;5076767;28;21072;-81
2023/11/30 07:16:32;;;;;;;13.35;11.77;;;;;;;;;;5077060;28;20386;-81
2023/11/30 07:18:58;;;;;;;12.73;11.43;;;;;;;;;;5057977;28;20382;-81
2023/11/30 07:21:26;;;;;;;16.70;12.00;;;;;;;;;;5067089;28;20375;-81
2023/11/30 07:23:52;;;;;;;14.82;12.55;;;;;;;;;;5073362;28;20449;-81
2023/11/30 07:26:18;;;;;;;15.32;12.80;;;;;;;;;;5067416;28;20393;-81
2023/11/30 07:28:44;;;;;;;14.00;12.50;;;;;;;;;;5056601;28;20843;-81
2023/11/30 07:31:18;;;;;;;17.75;14.88;;;;;;;;;;5056531;28;20413;-80
2023/11/30 07:33:43;;;;;;;17.33;14.27;;;;;;;;;;5070593;28;20416;-81
2023/11/30 07:36:10;;;;;;;18.17;14.70;;;;;;;;;;5076068;28;20387;-81
2023/11/30 07:38:36;;;;;;;18.70;14.50;;;;;;;;;;5076255;28;20710;-81
2023/11/30 07:41:02;;;;;;;14.73;13.15;;;;;;;;;;5076097;28;20427;-81
2023/11/30 07:43:28;;;;;;;18.77;14.25;;;;;;;;;;5077531;28;20384;-81
2023/11/30 07:45:54;;;;;;;18.05;14.18;;;;;;;;;;5074623;28;20383;-81
2023/11/30 07:48:20;;;;;;;17.27;14.05;;;;;;;;;;5060713;28;20396;-81
2023/11/30 07:50:46;;;;;;;17.60;14.20;;;;;;;;;;5056408;28;20409;-81
2023/11/30 07:53:12;;;;;;;20.33;14.20;;;;;;;;;;5056006;28;20389;-81
2023/11/30 07:55:38;;;;;;;18.08;14.48;;;;;;;;;;5056252;28;20381;-81
2023/11/30 07:58:05;;;;;;;16.38;13.98;;;;;;;;;;5057851;28;20377;-81
2023/11/30 08:00:31;;;;;;;17.38;13.55;;;;;;;;;;5067088;28;20388;-82
2023/11/30 08:02:57;;;;;;;16.30;13.90;;;;;;;;;;5065192;28;20388;-81
2023/11/30 08:05:24;;;;;;;17.05;13.60;;;;;;;;;;5055629;28;20378;-80
2023/11/30 08:07:50;;;;;;;16.42;13.18;;;;;;;;;;5055875;28;20826;-82
2023/11/30 08:10:17;;;;;;;15.77;13.88;;;;;;;;;;5056939;28;20782;-82
2023/11/30 08:12:43;;;;;;;17.95;14.70;;;;;;;;;;5068650;28;20387;-82
2023/11/30 08:15:10;;;;;;;17.10;14.20;;;;;;;;;;5073261;28;20395;-82
2023/11/30 08:17:36;;;;;;;20.60;15.40;;;;;;;;;;5056091;28;20384;-82
2023/11/30 08:20:02;;;;;;;17.02;14.48;;;;;;;;;;5056207;28;20435;-82
2023/11/30 08:22:28;;;;;;;17.85;14.77;;;;;;;;;;5055819;28;20389;-82
2023/11/30 08:24:56;;;;;;;16.60;14.80;;;;;;;;;;5056280;28;20374;-82
2023/11/30 08:27:23;;;;;;;17.13;15.00;;;;;;;;;;5055138;28;20751;-81
2023/11/30 08:29:49;;;;;;;20.40;15.25;;;;;;;;;;5056514;28;20761;-81
2023/11/30 08:32:16;;;;;;;21.90;16.25;;;;;;;;;;5056526;28;20376;-81
2023/11/30 08:34:42;;;;;;;21.45;16.58;;;;;;;;;;5056267;28;20381;-81
2023/11/30 08:37:08;;;;;;;22.93;16.40;;;;;;;;;;5056667;28;20431;-82
2023/11/30 08:39:34;;;;;;;24.02;18.33;;;;;;;;;;5064763;28;20455;-81
2023/11/30 08:42:00;;;;;;;24.38;18.13;;;;;;;;;;5061671;28;20393;-81
2023/11/30 08:44:26;;;;;;;25.52;20.20;;;;;;;;;;5076290;28;20383;-81
2023/11/30 08:46:53;;;;;;;23.83;18.52;;;;;;;;;;5063512;28;20927;-82
2023/11/30 08:49:18;;;;;;;23.35;18.15;;;;;;;;;;5055657;28;20458;-81
2023/11/30 08:51:45;;;;;;;23.98;17.60;;;;;;;;;;5065980;28;20932;-82
2023/11/30 08:54:11;;;;;;;22.77;17.50;;;;;;;;;;5065157;28;20392;-82
2023/11/30 08:56:37;;;;;;;21.30;16.90;;;;;;;;;;5068048;28;20417;-82
2023/11/30 08:59:03;;;;;;;21.08;16.80;;;;;;;;;;5057718;28;20451;-81
2023/11/30 09:01:29;;;;;;;21.67;16.85;;;;;;;;;;5057781;28;20462;-82
2023/11/30 09:04:02;;;;;;;20.30;16.80;;;;;;;;;;5057147;28;20512;-82
2023/11/30 09:06:29;;;;;;;19.40;16.02;;;;;;;;;;5058649;28;20431;-81
2023/11/30 09:08:55;;;;;;;23.25;16.85;;;;;;;;;;5057641;28;20397;-81
2023/11/30 09:11:21;;;;;;;22.03;16.70;;;;;;;;;;5058352;28;20406;-82
2023/11/30 09:13:47;;;;;;;18.60;15.52;;;;;;;;;;5079592;28;20771;-81
2023/11/30 09:16:13;;;;;;;17.35;15.43;;;;;;;;;;5066491;28;20392;-81
2023/11/30 09:18:39;;;;;;;20.33;16.48;;;;;;;;;;5058358;28;20435;-81
2023/11/30 09:21:05;;;;;;;17.52;15.55;;;;;;;;;;5059156;28;20385;-82
2023/11/30 09:23:31;;;;;;;18.97;16.13;;;;;;;;;;5059253;28;20478;-82
2023/11/30 09:25:58;;;;;;;22.73;16.67;;;;;;;;;;5058300;28;20397;-81
2023/11/30 09:28:24;;;;;;;17.65;15.73;;;;;;;;;;5056417;28;20439;-82
2023/11/30 09:30:50;;;;;;;20.27;16.13;;;;;;;;;;5056445;28;20436;-82
2023/11/30 09:33:17;;;;;;;20.27;16.63;;;;;;;;;;5056054;28;20468;-81
2023/11/30 09:35:43;;;;;;;18.13;16.08;;;;;;;;;;5056103;28;20434;-81
2023/11/30 09:38:09;;;;;;;17.92;15.82;;;;;;;;;;5057397;28;20784;-81
2023/11/30 09:40:35;;;;;;;18.77;16.13;;;;;;;;;;5055014;28;20381;-81
2023/11/30 09:43:01;;;;;;;17.60;15.70;;;;;;;;;;5066228;28;20753;-81
2023/11/30 09:45:28;;;;;;;18.75;16.23;;;;;;;;;;5078346;28;20376;-81
2023/11/30 09:47:54;;;;;;;18.10;15.98;;;;;;;;;;5059072;28;20413;-83
2023/11/30 09:50:20;;;;;;;17.77;16.00;;;;;;;;;;5059562;28;20748;-81
2023/11/30 09:52:46;;;;;;;18.10;16.02;;;;;;;;;;5059537;28;20378;-82
2023/11/30 09:55:12;;;;;;;23.27;20.00;;;;;;;;;;5070913;28;20510;-82
2023/11/30 09:57:39;;;;;;;30.10;24.10;;;;;;;;;;5045653;28;20389;-82
2023/11/30 10:00:06;;;;;;;28.33;23.55;;;;;;;;;;5059705;28;20382;-83
2023/11/30 10:02:32;;;;;;;28.20;22.73;;;;;;;;;;5060424;28;20379;-82
2023/11/30 10:04:58;;;;;;;20.90;17.92;;;;;;;;;;5060183;28;20377;-82
2023/11/30 10:07:24;;;;;;;22.27;18.90;;;;;;;;;;5060542;28;20893;-83
2023/11/30 10:09:50;;;;;;;19.50;17.35;;;;;;;;;;5059293;28;20393;-83
2023/11/30 10:12:19;;;;;;;19.87;17.77;;;;;;;;;;5068557;28;20857;-83
2023/11/30 10:14:45;;;;;;;22.25;18.50;;;;;;;;;;5080541;28;20429;-83
2023/11/30 10:17:11;;;;;;;21.35;18.88;;;;;;;;;;5060653;28;20385;-83
2023/11/30 10:19:37;;;;;;;20.10;17.88;;;;;;;;;;5060148;28;20377;-82
2023/11/30 10:22:03;;;;;;;20.25;18.05;;;;;;;;;;5060124;28;20901;-83
2023/11/30 10:24:29;;;;;;;22.58;18.73;;;;;;;;;;5059919;28;20758;-83
2023/11/30 10:26:59;;;;;;;20.75;18.08;;;;;;;;;;5060240;28;20417;-83
2023/11/30 10:29:27;;;;;;;20.00;17.83;;;;;;;;;;5059909;28;20446;-83
2023/11/30 10:31:55;;;;;;;20.67;17.17;;;;;;;;;;5061124;28;20914;-83
2023/11/30 10:34:28;;;;;;;20.35;17.10;;;;;;;;;;5060839;28;20521;-83
2023/11/30 10:36:54;;;;;;;18.38;16.48;;;;;;;;;;5060729;28;20393;-82
2023/11/30 10:39:22;;;;;;;17.98;16.10;;;;;;;;;;5061230;28;20374;-82
2023/11/30 10:41:50;;;;;;;17.70;15.85;;;;;;;;;;5060024;28;20389;-82
2023/11/30 10:44:25;;;;;;;19.65;16.60;;;;;;;;;;5080895;28;20841;-83
2023/11/30 10:46:53;;;;;;;17.33;15.48;;;;;;;;;;5069232;28;20818;-83
2023/11/30 10:49:21;;;;;;;17.95;16.05;;;;;;;;;;5063219;28;20977;-83
2023/11/30 10:51:47;;;;;;;17.60;15.90;;;;;;;;;;5063549;28;20469;-83
2023/11/30 10:54:20;;;;;;;16.93;15.23;;;;;;;;;;5062899;28;20392;-82
2023/11/30 10:56:47;;;;;;;16.65;14.98;;;;;;;;;;5064490;28;20431;-82
2023/11/30 10:59:13;;;;;;;16.35;14.68;;;;;;;;;;5062095;28;20378;-82
2023/11/30 11:01:40;;;;;;;17.55;15.65;;;;;;;;;;5063079;28;20381;-82
2023/11/30 11:04:08;;;;;;;16.77;15.07;;;;;;;;;;5063852;28;20381;-82
2023/11/30 11:06:34;;;;;;;17.02;15.32;;;;;;;;;;5075811;28;20431;-82
2023/11/30 11:09:03;;;;;;;22.60;19.90;;;;;;;;;;5062463;28;20388;-82
2023/11/30 11:11:30;;;;;;;22.10;19.10;;;;;;;;;;5063425;28;20402;-82
2023/11/30 11:13:56;;;;;;;22.48;19.83;;;;;;;;;;5083620;28;20383;-82
2023/11/30 11:16:33;;;;;;;19.83;17.83;;;;;;;;;;5067601;28;20373;-82
2023/11/30 11:19:02;;;;;;;17.67;15.95;;;;;;;;;;5078582;28;20785;-82
2023/11/30 11:21:33;;;;;;;17.50;15.80;;;;;;;;;;5082319;28;20375;-82
2023/11/30 11:24:03;;;;;;;16.83;15.23;;;;;;;;;;5068910;28;20389;-82
2023/11/30 11:26:40;;;;;;;16.98;15.32;;;;;;;;;;5078744;28;20800;-82
2023/11/30 11:29:06;;;;;;;16.38;14.77;;;;;;;;;;5064470;28;20435;-82
2023/11/30 11:31:32;;;;;;;14.93;13.52;;;;;;;;;;5063914;28;20409;-82
2023/11/30 11:33:58;;;;;;;16.83;15.23;;;;;;;;;;5071412;28;20376;-82
2023/11/30 11:36:25;;;;;;;16.23;14.63;;;;;;;;;;5067976;28;20381;-82
2023/11/30 11:38:51;;;;;;;16.15;14.63;;;;;;;;;;5064627;28;20416;-82
2023/11/30 11:41:20;;;;;;;16.02;14.52;;;;;;;;;;5064309;28;20465;-82
2023/11/30 11:43:49;;;;;;;16.10;14.57;;;;;;;;;;5062316;28;20382;-82
2023/11/30 11:46:15;;;;;;;15.82;14.43;;;;;;;;;;5068972;28;20442;-82
2023/11/30 11:48:41;;;;;;;16.75;15.05;;;;;;;;;;5064920;28;20385;-82
2023/11/30 11:51:07;;;;;;;16.38;14.80;;;;;;;;;;5067498;28;20400;-82
2023/11/30 11:53:38;;;;;;;16.08;14.57;;;;;;;;;;5067657;28;20720;-82
2023/11/30 11:56:06;;;;;;;16.60;15.00;;;;;;;;;;5060088;28;20377;-82
2023/11/30 11:58:32;;;;;;;16.70;14.87;;;;;;;;;;5059413;28;20482;-82
2023/11/30 12:00:58;;;;;;;17.40;15.60;;;;;;;;;;5058612;28;20803;-82
2023/11/30 12:03:24;;;;;;;16.15;14.55;;;;;;;;;;5058615;28;20859;-82
2023/11/30 12:05:51;;;;;;;16.17;14.60;;;;;;;;;;5056483;28;20855;-82
2023/11/30 12:08:27;;;;;;;17.58;15.88;;;;;;;;;;5056767;28;20890;-82
2023/11/30 12:10:53;;;;;;;16.70;15.10;;;;;;;;;;5057240;28;20409;-81
2023/11/30 12:13:26;;;;;;;18.33;16.42;;;;;;;;;;5068033;28;20419;-81
2023/11/30 12:15:53;;;;;;;17.95;16.23;;;;;;;;;;5056265;28;20381;-82
2023/11/30 12:18:19;;;;;;;18.25;16.45;;;;;;;;;;5056198;28;20370;-82
2023/11/30 12:20:45;;;;;;;17.45;15.70;;;;;;;;;;5056742;28;20918;-82
2023/11/30 12:23:12;;;;;;;17.42;15.70;;;;;;;;;;5056191;28;20384;-81
2023/11/30 12:25:38;;;;;;;17.47;15.70;;;;;;;;;;5065699;28;20721;-82
2023/11/30 12:28:04;;;;;;;18.73;16.80;;;;;;;;;;5059067;28;20385;-82
2023/11/30 12:30:30;;;;;;;18.03;15.47;;;;;;;;;;5055310;28;20405;-82
2023/11/30 12:32:56;;;;;;;18.10;16.05;;;;;;;;;;5054785;28;20380;-82
2023/11/30 12:35:24;;;;;;;16.17;14.57;;;;;;;;;;5054238;28;20750;-82
2023/11/30 12:37:50;;;;;;;18.60;16.60;;;;;;;;;;5054906;28;20373;-82
2023/11/30 12:40:16;;;;;;;19.67;17.63;;;;;;;;;;5055015;28;20789;-82
2023/11/30 12:42:42;;;;;;;19.48;17.38;;;;;;;;;;5055335;28;20449;-82
2023/11/30 12:45:08;;;;;;;19.20;16.58;;;;;;;;;;5057223;28;20423;-82
2023/11/30 12:47:34;;;;;;;18.27;16.10;;;;;;;;;;5063183;28;20412;-82
2023/11/30 12:50:01;;;;;;;16.08;14.50;;;;;;;;;;5056015;28;20431;-82
2023/11/30 12:52:26;;;;;;;16.50;14.90;;;;;;;;;;5067314;28;20466;-82
2023/11/30 12:54:54;;;;;;;16.42;14.75;;;;;;;;;;5059730;28;20451;-82
2023/11/30 12:57:20;;;;;;;16.63;14.95;;;;;;;;;;5064328;28;20376;-82
2023/11/30 12:59:46;;;;;;;17.83;16.03;;;;;;;;;;5065615;28;20389;-82
2023/11/30 13:02:12;;;;;;;18.80;16.63;;;;;;;;;;5060870;28;20974;-84
2023/11/30 13:04:39;;;;;;;17.15;15.45;;;;;;;;;;5064634;28;20403;-83
2023/11/30 13:07:05;;;;;;;17.10;15.40;;;;;;;;;;5069316;28;20437;-83
2023/11/30 13:09:32;;;;;;;16.30;14.70;;;;;;;;;;5074823;28;20390;-82
2023/11/30 13:12:01;;;;;;;16.27;14.70;;;;;;;;;;5066295;28;20429;-83
2023/11/30 13:14:28;;;;;;;16.13;14.52;;;;;;;;;;5062874;28;20469;-84
2023/11/30 13:16:54;;;;;;;16.88;15.18;;;;;;;;;;5069478;28;20382;-84
2023/11/30 13:19:20;;;;;;;16.60;14.90;;;;;;;;;;5060431;28;20458;-83
2023/11/30 13:21:46;;;;;;;18.60;15.23;;;;;;;;;;5068595;28;20781;-84
2023/11/30 13:24:12;;;;;;;16.73;15.13;;;;;;;;;;5071403;28;20706;-82
2023/11/30 13:26:39;;;;;;;16.52;14.90;;;;;;;;;;5073092;28;20390;-83
2023/11/30 13:29:05;;;;;;;17.08;15.32;;;;;;;;;;5069859;28;20380;-83
2023/11/30 13:31:31;;;;;;;16.35;14.65;;;;;;;;;;5075110;28;20811;-83
2023/11/30 13:33:57;;;;;;;17.42;15.60;;;;;;;;;;5075568;28;20375;-82
2023/11/30 13:36:23;;;;;;;17.43;15.63;;;;;;;;;;5075777;28;20368;-82
2023/11/30 13:38:49;;;;;;;15.40;13.90;;;;;;;;;;5066067;28;20389;-84
2023/11/30 13:41:16;;;;;;;16.95;15.15;;;;;;;;;;5063007;28;20384;-83
2023/11/30 13:43:42;;;;;;;15.88;14.27;;;;;;;;;;5061158;28;20385;-83
2023/11/30 13:46:12;;;;;;;16.20;14.60;;;;;;;;;;5060168;28;20455;-83
2023/11/30 13:48:39;;;;;;;16.85;15.27;;;;;;;;;;5058551;28;20388;-83
2023/11/30 13:51:05;;;;;;;16.67;15.00;;;;;;;;;;5069723;28;20399;-83
2023/11/30 13:53:32;;;;;;;16.90;15.20;;;;;;;;;;5073306;28;20371;-83
2023/11/30 13:55:58;;;;;;;16.92;15.32;;;;;;;;;;5073905;28;20391;-81
2023/11/30 13:58:24;;;;;;;17.88;16.08;;;;;;;;;;5070969;28;20385;-81
2023/11/30 14:00:50;;;;;;;16.92;15.23;;;;;;;;;;5076840;28;20382;-81
2023/11/30 14:03:16;;;;;;;18.30;16.40;;;;;;;;;;5076365;28;20376;-81
2023/11/30 14:05:45;;;;;;;18.60;16.40;;;;;;;;;;5077387;28;20386;-82
2023/11/30 14:08:11;;;;;;;16.02;14.48;;;;;;;;;;5078407;28;20376;-82
2023/11/30 14:10:38;;;;;;;18.10;16.20;;;;;;;;;;5073977;28;20484;-82
2023/11/30 14:13:04;;;;;;;18.88;16.95;;;;;;;;;;5069753;28;20413;-82
2023/11/30 14:15:30;;;;;;;16.98;15.27;;;;;;;;;;5074788;28;20378;-82
2023/11/30 14:17:56;;;;;;;17.70;15.88;;;;;;;;;;5056285;28;20386;-82
2023/11/30 14:20:22;;;;;;;18.57;16.10;;;;;;;;;;5054663;28;20389;-83
2023/11/30 14:22:48;;;;;;;18.08;16.17;;;;;;;;;;5060955;28;20388;-83